sensor_id;sensor_type;location;lat;lon;timestamp;pressure;altitude;pressure_sealevel;temperature;humidity
69351;BME280;57106;51.446;-2.606;2023-06-26T07:47:31;101931.50;;;21.39;48.44
69351;BME280;57106;51.446;-2.606;2023-06-26T07:52:18;101941.12;;;21.81;48.12
69351;BME280;57106;51.446;-2.606;2023-06-26T07:57:27;101948.49;;;21.92;47.04
69351;BME280;57106;51.446;-2.606;2023-06-26T07:59:33;101947.56;;;21.84;47.49
69351;BME280;57106;51.446;-2.606;2023-06-26T08:01:59;101943.82;;;21.92;47.58
69351;BME280;57106;51.446;-2.606;2023-06-26T08:04:24;101944.72;;;21.66;47.62
69351;BME280;57106;51.446;-2.606;2023-06-26T08:06:49;101950.68;;;21.27;48.74
69351;BME280;57106;51.446;-2.606;2023-06-26T08:09:22;101953.15;;;21.24;48.84
69351;BME280;57106;51.446;-2.606;2023-06-26T08:11:39;101948.53;;;21.24;49.06
69351;BME280;57106;51.446;-2.606;2023-06-26T08:14:05;101950.24;;;21.19;49.00
69351;BME280;57106;51.446;-2.606;2023-06-26T08:28:38;101954.63;;;20.94;48.15
69351;BME280;57106;51.446;-2.606;2023-06-26T08:31:04;101954.74;;;21.13;48.46
69351;BME280;57106;51.446;-2.606;2023-06-26T08:33:29;101956.93;;;21.48;47.73
69351;BME280;57106;51.446;-2.606;2023-06-26T08:45:35;101953.37;;;21.59;47.22
69351;BME280;57106;51.446;-2.606;2023-06-26T08:48:00;101951.46;;;21.90;47.29
69351;BME280;57106;51.446;-2.606;2023-06-26T08:50:27;101950.81;;;22.04;47.18
69351;BME280;57106;51.446;-2.606;2023-06-26T08:52:56;101948.99;;;22.06;47.64
69351;BME280;57106;51.446;-2.606;2023-06-26T08:55:16;101947.61;;;21.57;47.49
69351;BME280;57106;51.446;-2.606;2023-06-26T08:57:41;101950.01;;;21.39;48.44
69351;BME280;57106;51.446;-2.606;2023-06-26T09:02:38;101953.98;;;21.73;47.10
69351;BME280;57106;51.446;-2.606;2023-06-26T09:05:08;101955.18;;;21.65;47.37
69351;BME280;57106;51.446;-2.606;2023-06-26T09:07:22;101953.92;;;21.94;46.86
69351;BME280;57106;51.446;-2.606;2023-06-26T09:09:49;101950.52;;;21.72;46.35
69351;BME280;57106;51.446;-2.606;2023-06-26T09:12:13;101960.12;;;21.75;46.75
69351;BME280;57106;51.446;-2.606;2023-06-26T09:14:39;101961.06;;;21.89;46.11
69351;BME280;57106;51.446;-2.606;2023-06-26T09:17:04;101959.43;;;21.88;45.80
69351;BME280;57106;51.446;-2.606;2023-06-26T09:19:29;101964.84;;;21.50;46.22
69351;BME280;57106;51.446;-2.606;2023-06-26T09:22:00;101964.21;;;21.19;46.79
69351;BME280;57106;51.446;-2.606;2023-06-26T09:24:20;101963.82;;;21.53;46.09
69351;BME280;57106;51.446;-2.606;2023-06-26T09:26:46;101963.96;;;21.56;45.16
69351;BME280;57106;51.446;-2.606;2023-06-26T09:29:10;101960.16;;;21.65;45.13
69351;BME280;57106;51.446;-2.606;2023-06-26T09:31:37;101961.84;;;21.42;45.77
69351;BME280;57106;51.446;-2.606;2023-06-26T09:34:07;101963.97;;;21.61;45.24
69351;BME280;57106;51.446;-2.606;2023-06-26T09:36:29;101962.56;;;21.54;45.79
69351;BME280;57106;51.446;-2.606;2023-06-26T09:38:53;101960.75;;;21.74;45.30
69351;BME280;57106;51.446;-2.606;2023-06-26T09:41:17;101963.95;;;22.09;44.70
69351;BME280;57106;51.446;-2.606;2023-06-26T09:43:46;101966.72;;;22.35;44.67
69351;BME280;57106;51.446;-2.606;2023-06-26T09:46:08;101970.51;;;22.17;43.92
69351;BME280;57106;51.446;-2.606;2023-06-26T09:48:33;101969.79;;;22.21;43.74
69351;BME280;57106;51.446;-2.606;2023-06-26T09:51:00;101980.24;;;21.84;45.14
69351;BME280;57106;51.446;-2.606;2023-06-26T09:53:25;101982.28;;;22.04;44.65
69351;BME280;57106;51.446;-2.606;2023-06-26T09:55:53;101989.99;;;22.36;44.21
69351;BME280;57106;51.446;-2.606;2023-06-26T09:58:15;101993.78;;;22.37;44.09
69351;BME280;57106;51.446;-2.606;2023-06-26T10:00:41;101996.59;;;22.63;44.07
69351;BME280;57106;51.446;-2.606;2023-06-26T10:03:05;102006.44;;;22.58;44.27
69351;BME280;57106;51.446;-2.606;2023-06-26T10:05:30;102001.95;;;22.25;43.92
69351;BME280;57106;51.446;-2.606;2023-06-26T10:08:03;102003.57;;;22.30;44.10
69351;BME280;57106;51.446;-2.606;2023-06-26T10:10:23;102010.10;;;22.55;43.12
69351;BME280;57106;51.446;-2.606;2023-06-26T10:15:12;102008.45;;;22.18;43.06
69351;BME280;57106;51.446;-2.606;2023-06-26T10:17:38;102009.21;;;22.01;42.99
69351;BME280;57106;51.446;-2.606;2023-06-26T10:20:03;102010.34;;;21.99;42.89
69351;BME280;57106;51.446;-2.606;2023-06-26T10:22:30;102015.61;;;22.21;41.82
69351;BME280;57106;51.446;-2.606;2023-06-26T10:24:59;102009.46;;;22.22;42.18
69351;BME280;57106;51.446;-2.606;2023-06-26T10:27:20;102008.54;;;22.40;42.20
69351;BME280;57106;51.446;-2.606;2023-06-26T10:29:44;102017.95;;;22.79;42.41
69351;BME280;57106;51.446;-2.606;2023-06-26T10:32:11;102021.35;;;23.00;41.98
69351;BME280;57106;51.446;-2.606;2023-06-26T10:34:35;102019.58;;;22.72;42.97
69351;BME280;57106;51.446;-2.606;2023-06-26T10:37:04;102009.63;;;22.54;43.16
69351;BME280;57106;51.446;-2.606;2023-06-26T10:39:25;102019.66;;;22.73;43.14
69351;BME280;57106;51.446;-2.606;2023-06-26T10:41:54;102011.30;;;22.66;43.54
69351;BME280;57106;51.446;-2.606;2023-06-26T10:44:16;102014.05;;;22.66;43.02
69351;BME280;57106;51.446;-2.606;2023-06-26T10:46:52;102026.26;;;22.76;42.14
69351;BME280;57106;51.446;-2.606;2023-06-26T10:49:11;102023.61;;;22.63;41.51
69351;BME280;57106;51.446;-2.606;2023-06-26T10:51:32;102034.68;;;22.76;42.01
69351;BME280;57106;51.446;-2.606;2023-06-26T10:53:58;102039.49;;;22.86;41.47
69351;BME280;57106;51.446;-2.606;2023-06-26T11:01:20;102046.62;;;22.19;41.59
69351;BME280;57106;51.446;-2.606;2023-06-26T11:03:39;102047.14;;;21.95;42.23
69351;BME280;57106;51.446;-2.606;2023-06-26T11:06:10;102046.53;;;21.94;41.80
69351;BME280;57106;51.446;-2.606;2023-06-26T11:11:01;102040.69;;;22.18;41.58
69351;BME280;57106;51.446;-2.606;2023-06-26T11:15:45;102038.88;;;21.98;41.14
69351;BME280;57106;51.446;-2.606;2023-06-26T11:18:16;102047.89;;;22.09;40.82
69351;BME280;57106;51.446;-2.606;2023-06-26T11:20:36;102054.23;;;22.02;40.78
69351;BME280;57106;51.446;-2.606;2023-06-26T11:23:02;102038.06;;;22.15;42.42
69351;BME280;57106;51.446;-2.606;2023-06-26T11:25:26;102049.06;;;22.47;42.63
69351;BME280;57106;51.446;-2.606;2023-06-26T11:27:53;102062.80;;;22.73;41.78
69351;BME280;57106;51.446;-2.606;2023-06-26T11:30:23;102063.95;;;22.70;41.63
69351;BME280;57106;51.446;-2.606;2023-06-26T11:32:42;102054.87;;;22.63;41.18
69351;BME280;57106;51.446;-2.606;2023-06-26T11:35:08;102053.88;;;23.03;41.66
69351;BME280;57106;51.446;-2.606;2023-06-26T11:37:33;102054.93;;;23.05;40.84
69351;BME280;57106;51.446;-2.606;2023-06-26T11:39:58;102057.36;;;22.77;41.79
69351;BME280;57106;51.446;-2.606;2023-06-26T11:42:23;102059.85;;;23.27;41.58
69351;BME280;57106;51.446;-2.606;2023-06-26T11:44:49;102064.50;;;23.21;41.38
69351;BME280;57106;51.446;-2.606;2023-06-26T11:47:14;102063.12;;;23.12;41.83
69351;BME280;57106;51.446;-2.606;2023-06-26T11:49:42;102063.14;;;23.38;41.16
69351;BME280;57106;51.446;-2.606;2023-06-26T11:52:05;102067.39;;;23.33;41.41
69351;BME280;57106;51.446;-2.606;2023-06-26T11:54:32;102070.28;;;23.05;41.15
69351;BME280;57106;51.446;-2.606;2023-06-26T11:56:57;102074.01;;;23.30;41.23
69351;BME280;57106;51.446;-2.606;2023-06-26T11:59:20;102075.04;;;22.93;41.51
69351;BME280;57106;51.446;-2.606;2023-06-26T12:01:45;102075.89;;;22.87;41.88
69351;BME280;57106;51.446;-2.606;2023-06-26T12:04:13;102071.57;;;22.87;41.77
69351;BME280;57106;51.446;-2.606;2023-06-26T12:06:37;102073.29;;;22.77;41.80
69351;BME280;57106;51.446;-2.606;2023-06-26T12:09:11;102061.18;;;22.63;41.74
69351;BME280;57106;51.446;-2.606;2023-06-26T12:11:34;102060.92;;;22.69;42.17
69351;BME280;57106;51.446;-2.606;2023-06-26T12:13:52;102062.80;;;22.84;42.13
69351;BME280;57106;51.446;-2.606;2023-06-26T12:16:18;102063.86;;;23.02;42.30
69351;BME280;57106;51.446;-2.606;2023-06-26T12:18:43;102057.66;;;22.82;42.23
69351;BME280;57106;51.446;-2.606;2023-06-26T12:21:08;102062.74;;;22.65;42.28
69351;BME280;57106;51.446;-2.606;2023-06-26T12:23:39;102071.80;;;22.88;41.78
69351;BME280;57106;51.446;-2.606;2023-06-26T12:25:59;102074.44;;;23.24;42.06
69351;BME280;57106;51.446;-2.606;2023-06-26T12:28:24;102071.13;;;23.06;42.08
69351;BME280;57106;51.446;-2.606;2023-06-26T12:33:15;102067.07;;;23.39;41.13
69351;BME280;57106;51.446;-2.606;2023-06-26T12:35:40;102074.09;;;23.30;41.95
69351;BME280;57106;51.446;-2.606;2023-06-26T12:38:07;102071.70;;;23.38;42.18
69351;BME280;57106;51.446;-2.606;2023-06-26T12:45:21;102061.63;;;23.76;40.25
69351;BME280;57106;51.446;-2.606;2023-06-26T12:47:46;102062.45;;;23.71;40.13
69351;BME280;57106;51.446;-2.606;2023-06-26T12:57:28;102077.35;;;23.14;39.77
69351;BME280;57106;51.446;-2.606;2023-06-26T12:59:53;102083.48;;;23.67;38.63
69351;BME280;57106;51.446;-2.606;2023-06-26T13:02:18;102081.36;;;23.60;37.75
69351;BME280;57106;51.446;-2.606;2023-06-26T13:04:43;102085.56;;;23.42;37.78
69351;BME280;57106;51.446;-2.606;2023-06-26T13:07:08;102083.77;;;23.15;38.52
69351;BME280;57106;51.446;-2.606;2023-06-26T13:09:34;102079.37;;;23.15;38.71
69351;BME280;57106;51.446;-2.606;2023-06-26T13:11:59;102079.09;;;23.03;38.82
69351;BME280;57106;51.446;-2.606;2023-06-26T13:14:30;102082.24;;;23.33;39.11
69351;BME280;57106;51.446;-2.606;2023-06-26T13:16:50;102076.10;;;23.12;38.97
69351;BME280;57106;51.446;-2.606;2023-06-26T13:19:15;102072.09;;;22.92;39.17
69351;BME280;57106;51.446;-2.606;2023-06-26T13:21:40;102064.33;;;22.67;39.59
69351;BME280;57106;51.446;-2.606;2023-06-26T13:24:06;102069.83;;;22.55;40.25
69351;BME280;57106;51.446;-2.606;2023-06-26T13:26:32;102070.41;;;22.74;40.13
69351;BME280;57106;51.446;-2.606;2023-06-26T13:28:56;102066.42;;;22.95;39.83
69351;BME280;57106;51.446;-2.606;2023-06-26T13:31:22;102070.76;;;23.17;39.12
69351;BME280;57106;51.446;-2.606;2023-06-26T13:33:47;102065.11;;;23.38;39.10
69351;BME280;57106;51.446;-2.606;2023-06-26T13:36:12;102063.25;;;23.16;39.50
69351;BME280;57106;51.446;-2.606;2023-06-26T13:38:37;102076.21;;;23.15;39.15
69351;BME280;57106;51.446;-2.606;2023-06-26T13:41:03;102064.84;;;22.77;39.74
69351;BME280;57106;51.446;-2.606;2023-06-26T13:43:29;102063.67;;;22.78;38.56
69351;BME280;57106;51.446;-2.606;2023-06-26T13:45:54;102069.02;;;22.78;39.97
69351;BME280;57106;51.446;-2.606;2023-06-26T13:48:19;102066.95;;;22.94;40.38
69351;BME280;57106;51.446;-2.606;2023-06-26T13:50:45;102066.61;;;23.12;39.81
69351;BME280;57106;51.446;-2.606;2023-06-26T13:53:09;102059.18;;;23.02;39.72
69351;BME280;57106;51.446;-2.606;2023-06-26T13:55:35;102069.10;;;22.89;39.65
69351;BME280;57106;51.446;-2.606;2023-06-26T13:58:00;102056.76;;;22.57;41.29
69351;BME280;57106;51.446;-2.606;2023-06-26T14:00:26;102070.33;;;22.89;39.88
69351;BME280;57106;51.446;-2.606;2023-06-26T14:02:51;102064.61;;;22.93;40.41
69351;BME280;57106;51.446;-2.606;2023-06-26T14:05:16;102063.46;;;22.94;41.32
69351;BME280;57106;51.446;-2.606;2023-06-26T14:07:41;102057.63;;;23.07;41.22
69351;BME280;57106;51.446;-2.606;2023-06-26T14:10:08;102065.77;;;23.02;39.98
69351;BME280;57106;51.446;-2.606;2023-06-26T14:12:33;102064.91;;;22.74;41.52
69351;BME280;57106;51.446;-2.606;2023-06-26T14:14:57;102062.98;;;22.83;40.78
69351;BME280;57106;51.446;-2.606;2023-06-26T14:17:22;102066.59;;;22.84;39.30
69351;BME280;57106;51.446;-2.606;2023-06-26T14:19:48;102061.43;;;22.83;39.20
69351;BME280;57106;51.446;-2.606;2023-06-26T14:22:13;102065.11;;;22.74;38.69
69351;BME280;57106;51.446;-2.606;2023-06-26T14:24:39;102068.15;;;22.77;38.93
69351;BME280;57106;51.446;-2.606;2023-06-26T14:27:04;102068.11;;;22.78;38.95
69351;BME280;57106;51.446;-2.606;2023-06-26T14:29:30;102067.01;;;22.87;38.69
69351;BME280;57106;51.446;-2.606;2023-06-26T14:31:54;102069.78;;;22.96;39.09
69351;BME280;57106;51.446;-2.606;2023-06-26T14:34:19;102070.13;;;22.83;39.44
69351;BME280;57106;51.446;-2.606;2023-06-26T14:36:45;102073.06;;;22.70;40.86
69351;BME280;57106;51.446;-2.606;2023-06-26T14:39:10;102072.22;;;22.94;41.25
69351;BME280;57106;51.446;-2.606;2023-06-26T14:41:35;102078.88;;;23.33;41.07
69351;BME280;57106;51.446;-2.606;2023-06-26T14:44:01;102078.61;;;23.17;40.68
69351;BME280;57106;51.446;-2.606;2023-06-26T14:46:26;102080.03;;;23.30;40.37
69351;BME280;57106;51.446;-2.606;2023-06-26T14:49:02;102078.83;;;23.16;40.96
69351;BME280;57106;51.446;-2.606;2023-06-26T14:51:16;102079.96;;;23.41;40.88
69351;BME280;57106;51.446;-2.606;2023-06-26T14:53:42;102087.80;;;23.34;41.23
69351;BME280;57106;51.446;-2.606;2023-06-26T14:56:07;102079.91;;;23.17;40.77
69351;BME280;57106;51.446;-2.606;2023-06-26T14:58:32;102076.79;;;23.27;40.42
69351;BME280;57106;51.446;-2.606;2023-06-26T15:00:58;102080.57;;;23.35;41.14
69351;BME280;57106;51.446;-2.606;2023-06-26T15:03:23;102077.00;;;23.40;40.23
69351;BME280;57106;51.446;-2.606;2023-06-26T15:05:50;102082.46;;;23.54;40.42
69351;BME280;57106;51.446;-2.606;2023-06-26T15:08:14;102077.11;;;23.22;40.76
69351;BME280;57106;51.446;-2.606;2023-06-26T15:10:39;102080.93;;;23.54;40.58
69351;BME280;57106;51.446;-2.606;2023-06-26T15:13:04;102076.34;;;23.73;40.14
69351;BME280;57106;51.446;-2.606;2023-06-26T15:15:29;102077.59;;;23.68;39.86
69351;BME280;57106;51.446;-2.606;2023-06-26T15:17:55;102074.40;;;23.39;41.23
69351;BME280;57106;51.446;-2.606;2023-06-26T15:20:20;102068.83;;;23.45;40.52
69351;BME280;57106;51.446;-2.606;2023-06-26T15:22:45;102069.30;;;23.08;41.57
69351;BME280;57106;51.446;-2.606;2023-06-26T15:25:11;102066.22;;;22.77;42.29
69351;BME280;57106;51.446;-2.606;2023-06-26T15:27:36;102065.84;;;22.86;42.35
69351;BME280;57106;51.446;-2.606;2023-06-26T15:30:01;102065.04;;;23.06;41.71
69351;BME280;57106;51.446;-2.606;2023-06-26T15:32:27;102068.27;;;23.04;41.53
69351;BME280;57106;51.446;-2.606;2023-06-26T15:34:52;102056.60;;;23.34;40.93
69351;BME280;57106;51.446;-2.606;2023-06-26T15:37:17;102071.07;;;23.48;40.83
69351;BME280;57106;51.446;-2.606;2023-06-26T15:39:43;102063.09;;;23.40;40.91
69351;BME280;57106;51.446;-2.606;2023-06-26T15:42:10;102064.26;;;23.36;41.59
69351;BME280;57106;51.446;-2.606;2023-06-26T15:44:33;102066.15;;;23.56;41.33
69351;BME280;57106;51.446;-2.606;2023-06-26T15:46:59;102060.61;;;23.20;41.64
69351;BME280;57106;51.446;-2.606;2023-06-26T15:49:24;102064.05;;;23.21;41.33
69351;BME280;57106;51.446;-2.606;2023-06-26T15:51:49;102066.60;;;23.24;40.70
69351;BME280;57106;51.446;-2.606;2023-06-26T15:54:14;102063.19;;;23.28;40.27
69351;BME280;57106;51.446;-2.606;2023-06-26T15:56:39;102049.77;;;23.30;40.37
69351;BME280;57106;51.446;-2.606;2023-06-26T15:59:05;102049.77;;;23.06;40.92
69351;BME280;57106;51.446;-2.606;2023-06-26T16:01:30;102046.73;;;23.18;41.25
69351;BME280;57106;51.446;-2.606;2023-06-26T16:03:56;102041.60;;;23.10;40.94
69351;BME280;57106;51.446;-2.606;2023-06-26T16:06:21;102042.94;;;22.93;41.84
69351;BME280;57106;51.446;-2.606;2023-06-26T16:08:46;102040.17;;;23.09;41.53
69351;BME280;57106;51.446;-2.606;2023-06-26T16:11:11;102047.66;;;23.12;41.09
69351;BME280;57106;51.446;-2.606;2023-06-26T16:13:42;102045.80;;;22.93;40.91
69351;BME280;57106;51.446;-2.606;2023-06-26T16:16:02;102047.55;;;22.71;41.98
69351;BME280;57106;51.446;-2.606;2023-06-26T16:18:33;102039.37;;;22.60;42.68
69351;BME280;57106;51.446;-2.606;2023-06-26T16:20:53;102049.45;;;23.03;42.08
69351;BME280;57106;51.446;-2.606;2023-06-26T16:23:18;102050.87;;;23.12;41.62
69351;BME280;57106;51.446;-2.606;2023-06-26T16:25:45;102048.34;;;23.38;40.93
69351;BME280;57106;51.446;-2.606;2023-06-26T16:28:14;102059.74;;;23.20;41.41
69351;BME280;57106;51.446;-2.606;2023-06-26T16:30:34;102055.70;;;23.30;41.33
69351;BME280;57106;51.446;-2.606;2023-06-26T16:32:59;102065.46;;;23.35;41.57
69351;BME280;57106;51.446;-2.606;2023-06-26T16:42:47;102065.97;;;23.43;40.24
69351;BME280;57106;51.446;-2.606;2023-06-26T16:45:10;102064.85;;;23.54;40.14
69351;BME280;57106;51.446;-2.606;2023-06-26T16:47:31;102068.11;;;23.34;40.62
69351;BME280;57106;51.446;-2.606;2023-06-26T16:49:56;102070.17;;;23.28;41.95
69351;BME280;57106;51.446;-2.606;2023-06-26T16:52:22;102062.08;;;23.17;42.01
69351;BME280;57106;51.446;-2.606;2023-06-26T16:54:47;102060.57;;;23.09;42.51
69351;BME280;57106;51.446;-2.606;2023-06-26T16:57:12;102054.55;;;23.05;42.04
69351;BME280;57106;51.446;-2.606;2023-06-26T16:59:37;102061.19;;;22.90;42.57
69351;BME280;57106;51.446;-2.606;2023-06-26T17:02:13;102057.86;;;22.75;42.47
69351;BME280;57106;51.446;-2.606;2023-06-26T17:04:29;102058.84;;;22.76;43.46
69351;BME280;57106;51.446;-2.606;2023-06-26T17:06:53;102050.38;;;23.06;43.10
69351;BME280;57106;51.446;-2.606;2023-06-26T17:09:19;102062.01;;;23.04;42.86
69351;BME280;57106;51.446;-2.606;2023-06-26T17:11:44;102052.58;;;22.61;43.32
69351;BME280;57106;51.446;-2.606;2023-06-26T17:14:09;102053.87;;;22.61;43.66
69351;BME280;57106;51.446;-2.606;2023-06-26T17:16:42;102049.39;;;22.67;43.75
69351;BME280;57106;51.446;-2.606;2023-06-26T17:19:00;102049.13;;;22.44;43.69
69351;BME280;57106;51.446;-2.606;2023-06-26T17:23:51;102051.39;;;22.33;44.05
69351;BME280;57106;51.446;-2.606;2023-06-26T17:26:18;102040.01;;;22.41;44.17
69351;BME280;57106;51.446;-2.606;2023-06-26T17:28:41;102050.05;;;22.74;43.76
69351;BME280;57106;51.446;-2.606;2023-06-26T17:31:07;102053.46;;;22.94;44.16
69351;BME280;57106;51.446;-2.606;2023-06-26T17:33:34;102056.38;;;23.17;43.46
69351;BME280;57106;51.446;-2.606;2023-06-26T17:35:58;102060.41;;;22.95;44.43
69351;BME280;57106;51.446;-2.606;2023-06-26T17:38:23;102057.41;;;22.87;44.97
69351;BME280;57106;51.446;-2.606;2023-06-26T17:40:53;102058.88;;;22.84;44.87
69351;BME280;57106;51.446;-2.606;2023-06-26T17:43:13;102065.29;;;22.74;45.02
69351;BME280;57106;51.446;-2.606;2023-06-26T17:45:38;102058.92;;;22.72;44.70
69351;BME280;57106;51.446;-2.606;2023-06-26T17:48:04;102064.82;;;22.14;45.46
69351;BME280;57106;51.446;-2.606;2023-06-26T17:50:38;102067.49;;;22.24;45.54
69351;BME280;57106;51.446;-2.606;2023-06-26T17:52:55;102072.64;;;22.00;45.06
69351;BME280;57106;51.446;-2.606;2023-06-26T17:55:21;102068.50;;;22.21;44.10
69351;BME280;57106;51.446;-2.606;2023-06-26T17:57:46;102073.01;;;22.10;42.32
69351;BME280;57106;51.446;-2.606;2023-06-26T18:00:12;102068.08;;;21.98;42.98
69351;BME280;57106;51.446;-2.606;2023-06-26T18:02:36;102072.06;;;22.04;43.61
69351;BME280;57106;51.446;-2.606;2023-06-26T18:05:01;102073.50;;;22.11;44.40
69351;BME280;57106;51.446;-2.606;2023-06-26T18:07:26;102077.18;;;21.80;44.65
69351;BME280;57106;51.446;-2.606;2023-06-26T18:09:52;102078.49;;;22.01;44.30
69351;BME280;57106;51.446;-2.606;2023-06-26T18:12:21;102082.37;;;21.94;44.41
69351;BME280;57106;51.446;-2.606;2023-06-26T18:14:43;102083.96;;;22.10;44.01
69351;BME280;57106;51.446;-2.606;2023-06-26T18:17:08;102092.32;;;21.96;44.40
69351;BME280;57106;51.446;-2.606;2023-06-26T18:19:33;102087.35;;;21.80;43.78
69351;BME280;57106;51.446;-2.606;2023-06-26T18:21:58;102089.42;;;22.08;43.78
69351;BME280;57106;51.446;-2.606;2023-06-26T18:24:24;102086.05;;;21.91;43.68
69351;BME280;57106;51.446;-2.606;2023-06-26T18:26:50;102090.62;;;21.84;42.81
69351;BME280;57106;51.446;-2.606;2023-06-26T18:29:15;102091.56;;;21.79;42.99
69351;BME280;57106;51.446;-2.606;2023-06-26T18:31:40;102097.34;;;21.62;43.28
69351;BME280;57106;51.446;-2.606;2023-06-26T18:34:05;102097.93;;;21.63;42.79
69351;BME280;57106;51.446;-2.606;2023-06-26T18:36:30;102104.91;;;21.50;43.19
69351;BME280;57106;51.446;-2.606;2023-06-26T18:38:56;102105.87;;;21.26;43.48
69351;BME280;57106;51.446;-2.606;2023-06-26T18:41:22;102104.78;;;21.09;43.96
69351;BME280;57106;51.446;-2.606;2023-06-26T18:43:47;102105.11;;;21.44;43.57
69351;BME280;57106;51.446;-2.606;2023-06-26T18:46:13;102106.82;;;21.34;44.12
69351;BME280;57106;51.446;-2.606;2023-06-26T18:48:37;102112.56;;;21.40;44.24
69351;BME280;57106;51.446;-2.606;2023-06-26T18:51:03;102116.54;;;21.43;44.40
69351;BME280;57106;51.446;-2.606;2023-06-26T18:53:28;102117.44;;;21.35;44.49
69351;BME280;57106;51.446;-2.606;2023-06-26T18:56:03;102121.34;;;21.40;44.64
69351;BME280;57106;51.446;-2.606;2023-06-26T18:58:19;102116.98;;;21.13;45.37
69351;BME280;57106;51.446;-2.606;2023-06-26T19:00:44;102119.05;;;21.14;45.76
69351;BME280;57106;51.446;-2.606;2023-06-26T19:03:10;102120.12;;;21.19;45.76
69351;BME280;57106;51.446;-2.606;2023-06-26T19:05:35;102131.94;;;21.23;45.87
69351;BME280;57106;51.446;-2.606;2023-06-26T19:08:00;102128.89;;;21.04;46.03
69351;BME280;57106;51.446;-2.606;2023-06-26T19:10:25;102131.64;;;21.01;46.06
69351;BME280;57106;51.446;-2.606;2023-06-26T19:12:51;102139.68;;;20.96;46.21
69351;BME280;57106;51.446;-2.606;2023-06-26T19:15:18;102137.32;;;21.02;45.98
69351;BME280;57106;51.446;-2.606;2023-06-26T19:17:42;102138.15;;;21.15;45.60
69351;BME280;57106;51.446;-2.606;2023-06-26T19:20:07;102140.04;;;20.98;45.99
69351;BME280;57106;51.446;-2.606;2023-06-26T19:22:32;102138.26;;;20.71;46.64
69351;BME280;57106;51.446;-2.606;2023-06-26T19:25:04;102138.62;;;20.77;46.70
69351;BME280;57106;51.446;-2.606;2023-06-26T19:27:24;102144.11;;;20.72;46.81
69351;BME280;57106;51.446;-2.606;2023-06-26T19:29:48;102147.85;;;20.45;47.17
69351;BME280;57106;51.446;-2.606;2023-06-26T19:32:14;102151.74;;;20.49;47.12
69351;BME280;57106;51.446;-2.606;2023-06-26T19:34:39;102150.09;;;20.55;46.92
69351;BME280;57106;51.446;-2.606;2023-06-26T19:37:05;102150.61;;;20.38;47.03
69351;BME280;57106;51.446;-2.606;2023-06-26T19:39:30;102147.14;;;20.45;47.03
69351;BME280;57106;51.446;-2.606;2023-06-26T19:41:56;102151.79;;;20.40;46.63
69351;BME280;57106;51.446;-2.606;2023-06-26T19:44:21;102144.58;;;20.45;46.75
69351;BME280;57106;51.446;-2.606;2023-06-26T19:46:46;102149.52;;;20.40;46.62
69351;BME280;57106;51.446;-2.606;2023-06-26T19:49:11;102156.42;;;20.38;46.74
69351;BME280;57106;51.446;-2.606;2023-06-26T19:51:36;102157.29;;;20.51;46.57
69351;BME280;57106;51.446;-2.606;2023-06-26T19:54:02;102155.36;;;20.34;47.06
69351;BME280;57106;51.446;-2.606;2023-06-26T19:56:28;102159.08;;;20.39;47.02
69351;BME280;57106;51.446;-2.606;2023-06-26T19:58:54;102165.51;;;20.23;47.73
69351;BME280;57106;51.446;-2.606;2023-06-26T20:01:18;102161.13;;;20.24;48.00
69351;BME280;57106;51.446;-2.606;2023-06-26T20:03:46;102162.00;;;20.31;48.20
69351;BME280;57106;51.446;-2.606;2023-06-26T20:06:09;102161.71;;;20.17;48.64
69351;BME280;57106;51.446;-2.606;2023-06-26T20:11:00;102166.01;;;20.38;48.68
69351;BME280;57106;51.446;-2.606;2023-06-26T20:13:25;102164.98;;;20.35;48.76
69351;BME280;57106;51.446;-2.606;2023-06-26T20:15:50;102169.08;;;20.13;49.35
69351;BME280;57106;51.446;-2.606;2023-06-26T20:18:20;102171.44;;;20.18;49.49
69351;BME280;57106;51.446;-2.606;2023-06-26T20:20:50;102172.47;;;20.20;49.63
69351;BME280;57106;51.446;-2.606;2023-06-26T20:23:07;102174.81;;;20.18;49.80
69351;BME280;57106;51.446;-2.606;2023-06-26T20:25:32;102178.61;;;20.07;50.07
69351;BME280;57106;51.446;-2.606;2023-06-26T20:27:58;102182.14;;;20.22;49.97
69351;BME280;57106;51.446;-2.606;2023-06-26T20:30:23;102180.03;;;20.20;49.94
69351;BME280;57106;51.446;-2.606;2023-06-26T20:32:48;102181.88;;;20.15;50.13
69351;BME280;57106;51.446;-2.606;2023-06-26T20:35:14;102175.21;;;20.07;50.35
69351;BME280;57106;51.446;-2.606;2023-06-26T20:37:39;102169.39;;;20.06;50.50
69351;BME280;57106;51.446;-2.606;2023-06-26T20:52:12;102183.94;;;20.28;50.36
69351;BME280;57106;51.446;-2.606;2023-06-26T20:54:38;102185.89;;;20.33;50.48
69351;BME280;57106;51.446;-2.606;2023-06-26T20:57:02;102186.50;;;20.19;50.82
69351;BME280;57106;51.446;-2.606;2023-06-26T20:59:28;102189.30;;;20.16;51.14
69351;BME280;57106;51.446;-2.606;2023-06-26T21:04:28;102192.91;;;20.03;51.80
69351;BME280;57106;51.446;-2.606;2023-06-26T21:06:43;102193.16;;;19.92;52.25
69351;BME280;57106;51.446;-2.606;2023-06-26T21:11:35;102192.13;;;19.84;52.95
69351;BME280;57106;51.446;-2.606;2023-06-26T21:18:51;102205.16;;;20.07;52.61
69351;BME280;57106;51.446;-2.606;2023-06-26T21:21:17;102205.85;;;20.21;52.30
69351;BME280;57106;51.446;-2.606;2023-06-26T21:23:42;102204.78;;;20.32;52.02
69351;BME280;57106;51.446;-2.606;2023-06-26T21:26:11;102201.97;;;20.37;51.99
69351;BME280;57106;51.446;-2.606;2023-06-26T21:28:32;102203.57;;;20.23;52.26
69351;BME280;57106;51.446;-2.606;2023-06-26T21:33:23;102207.70;;;20.21;52.42
69351;BME280;57106;51.446;-2.606;2023-06-26T21:38:14;102215.15;;;20.27;52.45
69351;BME280;57106;51.446;-2.606;2023-06-26T21:40:40;102220.98;;;19.94;53.39
69351;BME280;57106;51.446;-2.606;2023-06-26T21:47:56;102205.48;;;19.98;53.75
69351;BME280;57106;51.446;-2.606;2023-06-26T21:50:21;102200.65;;;19.96;53.91
69351;BME280;57106;51.446;-2.606;2023-06-26T21:52:46;102194.63;;;19.80;54.42
69351;BME280;57106;51.446;-2.606;2023-06-26T21:57:38;102196.48;;;20.12;53.87